Time;durP1;ratioP1;P1;durP2;ratioP2;P2;SDS_P1;SDS_P2;PMS_P1;PMS_P2;Temp;Humidity;BMP_temperature;BMP_pressure;BME280_temperature;BME280_humidity;BME280_pressure;Samples;Min_cycle;Max_cycle;Signal;HPM_P1;HPM_P2
2022/11/28 00:02:07;;;;;;;4.67;3.40;;;;;;;6.63;69.00;100736.38;5077166;28;20219;-73
2022/11/28 00:04:34;;;;;;;4.47;3.30;;;;;;;6.60;69.17;100732.09;5080131;28;20210;-77
2022/11/28 00:07:02;;;;;;;5.30;3.40;;;;;;;6.62;69.01;100729.38;5076914;28;20209;-74
2022/11/28 00:09:28;;;;;;;5.13;3.27;;;;;;;6.61;68.46;100732.97;5077129;28;20228;-78
2022/11/28 00:11:54;;;;;;;4.40;3.13;;;;;;;6.59;68.97;100734.81;5078260;28;20204;-74
2022/11/28 00:14:21;;;;;;;3.50;3.20;;;;;;;6.59;68.40;100734.81;5078776;28;20234;-75
2022/11/28 00:16:47;;;;;;;5.10;3.40;;;;;;;6.59;68.99;100735.69;5076852;28;20597;-77
2022/11/28 00:19:14;;;;;;;5.37;3.37;;;;;;;6.58;69.39;100726.03;5079215;28;20212;-78
2022/11/28 00:21:41;;;;;;;3.90;3.03;;;;;;;6.58;69.10;100738.38;5078670;28;20580;-76
2022/11/28 00:24:10;;;;;;;4.43;2.90;;;;;;;6.56;69.14;100741.09;5081307;28;20720;-76
2022/11/28 00:26:38;;;;;;;3.93;2.90;;;;;;;6.57;69.23;100736.66;5081236;28;20201;-75
2022/11/28 00:29:06;;;;;;;4.10;3.33;;;;;;;6.56;69.04;100743.75;5082422;28;20224;-72
2022/11/28 00:31:34;;;;;;;4.40;2.97;;;;;;;6.57;68.98;100747.25;5086463;28;20208;-77
2022/11/28 00:34:02;;;;;;;4.90;3.20;;;;;;;6.56;69.31;100756.13;5079876;28;20232;-75
2022/11/28 00:36:29;;;;;;;5.87;3.30;;;;;;;6.57;69.59;100745.47;5084438;28;20203;-73
2022/11/28 00:38:56;;;;;;;3.73;2.80;;;;;;;6.57;69.42;100748.13;5081165;28;20203;-75
2022/11/28 00:41:27;;;;;;;4.90;3.27;;;;;;;6.61;67.97;100743.53;5084802;28;20737;-76
2022/11/28 00:43:54;;;;;;;4.90;2.87;;;;;;;6.62;68.22;100745.28;5085594;28;20220;-74
2022/11/28 00:46:22;;;;;;;3.90;2.70;;;;;;;6.63;67.96;100742.53;5083522;28;20205;-76
2022/11/28 00:48:49;;;;;;;3.40;2.90;;;;;;;6.65;67.62;100753.03;5082174;28;20299;-74
2022/11/28 00:51:17;;;;;;;4.63;3.07;;;;;;;6.66;68.02;100740.66;5090006;28;20757;-75
2022/11/28 00:53:46;;;;;;;4.13;3.00;;;;;;;6.66;67.83;100736.22;5084640;28;20224;-77
2022/11/28 00:56:14;;;;;;;2.67;2.47;;;;;;;6.68;67.21;100731.72;5086698;28;20201;-73
2022/11/28 00:58:42;;;;;;;3.00;2.70;;;;;;;6.67;67.26;100727.38;5079361;28;20209;-79
2022/11/28 01:01:11;;;;;;;3.17;2.77;;;;;;;6.67;67.01;100713.28;5087913;28;20200;-74
2022/11/28 01:03:38;;;;;;;4.67;2.50;;;;;;;6.67;67.41;100684.16;5085043;28;20609;-74
2022/11/28 01:06:05;;;;;;;3.03;2.70;;;;;;;6.66;66.90;100687.75;5084906;28;20204;-77
2022/11/28 01:08:32;;;;;;;3.53;2.90;;;;;;;6.66;66.59;100688.59;5079577;28;20204;-74
2022/11/28 01:10:59;;;;;;;3.17;2.60;;;;;;;6.67;66.34;100679.72;5089809;28;20238;-77
2022/11/28 01:13:25;;;;;;;3.07;2.77;;;;;;;6.66;66.00;100683.31;5084721;28;20232;-76
2022/11/28 01:15:53;;;;;;;3.50;2.90;;;;;;;6.65;66.60;100688.66;5080249;28;20216;-78
2022/11/28 01:18:20;;;;;;;2.97;2.57;;;;;;;6.63;66.64;100678.16;5086813;28;20216;-75
2022/11/28 01:20:46;;;;;;;4.77;3.33;;;;;;;6.65;66.63;100667.50;5078272;28;20239;-74
2022/11/28 01:23:13;;;;;;;3.07;2.70;;;;;;;6.65;66.48;100670.16;5083173;28;20220;-76
2022/11/28 01:25:39;;;;;;;3.47;2.40;;;;;;;6.63;66.25;100679.00;5085555;28;20200;-73
2022/11/28 01:28:06;;;;;;;3.37;2.60;;;;;;;6.65;66.09;100681.59;5084652;28;20581;-77
2022/11/28 01:30:33;;;;;;;4.40;2.63;;;;;;;6.65;66.19;100671.00;5087202;28;20231;-74
2022/11/28 01:33:01;;;;;;;4.03;3.10;;;;;;;6.65;65.78;100675.44;5082060;28;20224;-71
2022/11/28 01:35:27;;;;;;;4.93;3.43;;;;;;;6.63;65.75;100665.78;5093403;28;20204;-74
2022/11/28 01:37:54;;;;;;;4.60;3.33;;;;;;;6.63;66.33;100668.44;5091585;28;20728;-73
2022/11/28 01:40:21;;;;;;;4.17;2.90;;;;;;;6.60;65.81;100663.31;5094083;28;20207;-74
2022/11/28 01:42:48;;;;;;;4.53;3.20;;;;;;;6.60;65.98;100670.38;5092987;28;20227;-74
2022/11/28 01:45:18;;;;;;;3.53;2.97;;;;;;;6.62;65.49;100671.16;5088296;28;20544;-74
2022/11/28 01:47:46;;;;;;;3.63;2.67;;;;;;;6.65;65.27;100644.53;5084580;28;20226;-75
2022/11/28 01:50:16;;;;;;;4.87;3.17;;;;;;;6.66;65.37;100638.31;5083439;28;20224;-76
2022/11/28 01:52:45;;;;;;;3.93;2.97;;;;;;;6.63;65.05;100633.16;5094301;28;20230;-78
2022/11/28 01:55:15;;;;;;;4.17;2.90;;;;;;;6.60;65.00;100636.84;5081849;28;20237;-76
2022/11/28 01:57:42;;;;;;;5.77;3.17;;;;;;;6.58;65.54;100632.53;5089403;28;20227;-75
2022/11/28 02:00:12;;;;;;;3.73;3.13;;;;;;;6.59;65.51;100642.19;5083848;28;20196;-73
2022/11/28 02:02:41;;;;;;;5.07;3.00;;;;;;;6.61;65.91;100643.00;5082005;28;20237;-74
2022/11/28 02:05:09;;;;;;;4.07;3.00;;;;;;;6.60;65.89;100625.41;5087843;28;20671;-75
2022/11/28 02:07:37;;;;;;;4.90;3.17;;;;;;;6.58;66.43;100621.97;5099811;28;20673;-74
2022/11/28 02:10:07;;;;;;;3.60;3.10;;;;;;;6.58;65.92;100603.44;5077828;28;20230;-75
2022/11/28 02:13:19;;;;;;;5.03;2.93;;;;;;;6.56;65.89;100600.00;5089693;28;20219;-74
2022/11/28 02:16:00;;;;;;;3.93;3.10;;;;;;;6.52;66.44;100595.78;5024722;28;20206;-75
2022/11/28 02:18:43;;;;;;;5.60;3.30;;;;;;;6.51;66.24;100584.34;5029592;28;20205;-76
2022/11/28 02:21:35;;;;;;;3.80;3.00;;;;;;;6.49;66.23;100562.38;5069769;28;20293;-77
2022/11/28 02:24:31;;;;;;;6.10;3.47;;;;;;;6.48;65.84;100542.16;5088074;28;20240;-74
2022/11/28 02:27:19;;;;;;;4.23;2.90;;;;;;;6.48;66.21;100531.56;5079267;28;20208;-74
2022/11/28 02:30:19;;;;;;;3.23;2.80;;;;;;;6.49;65.37;100535.06;5087810;28;20220;-76
2022/11/28 02:33:06;;;;;;;5.10;3.20;;;;;;;6.48;65.41;100541.28;5091553;28;20258;-74
2022/11/28 02:35:38;;;;;;;4.37;3.23;;;;;;;6.50;65.81;100547.38;5083310;28;20196;-74
2022/11/28 02:38:13;;;;;;;5.73;2.67;;;;;;;6.50;65.65;100555.31;5096652;28;20205;-75
2022/11/28 02:40:49;;;;;;;4.07;3.10;;;;;;;6.49;65.77;100580.03;5081018;22;20267;-75
2022/11/28 02:43:23;;;;;;;9.13;3.40;;;;;;;6.50;66.05;100605.56;5046202;28;20232;-75
2022/11/28 02:46:07;;;;;;;4.77;3.40;;;;;;;6.49;65.36;100578.25;5042510;28;20582;-75
2022/11/28 02:48:41;;;;;;;3.80;2.80;;;;;;;6.55;65.42;100570.03;5045286;28;20233;-73
2022/11/28 02:51:13;;;;;;;3.10;2.80;;;;;;;6.55;65.12;100566.53;5029022;28;20223;-73
2022/11/28 02:53:43;;;;;;;4.30;3.10;;;;;;;6.52;65.38;100601.94;5020803;28;20214;-73
2022/11/28 02:56:11;;;;;;;3.37;3.07;;;;;;;6.50;65.49;100590.56;5026960;28;20711;-75
2022/11/28 02:58:37;;;;;;;4.37;3.50;;;;;;;6.49;65.71;100588.84;5026210;28;20209;-74
2022/11/28 03:01:06;;;;;;;4.47;3.30;;;;;;;6.49;65.27;100572.97;5032391;28;20229;-75
2022/11/28 03:04:23;;;;;;;4.33;3.27;;;;;;;6.48;65.58;100576.53;5024428;28;20210;-75
2022/11/28 03:07:01;;;;;;;3.20;2.90;;;;;;;6.49;65.22;100565.03;5023944;28;20430;-75
2022/11/28 03:09:49;;;;;;;3.50;2.70;;;;;;;6.51;64.95;100575.53;5029669;28;20691;-75
2022/11/28 03:12:24;;;;;;;3.50;2.73;;;;;;;6.51;64.69;100567.59;5028584;28;20198;-75
2022/11/28 03:14:54;;;;;;;4.47;3.13;;;;;;;6.51;65.10;100559.66;5033576;28;20241;-75
2022/11/28 03:17:27;;;;;;;4.70;3.27;;;;;;;6.54;65.01;100557.75;5024809;28;20722;-75
2022/11/28 03:20:06;;;;;;;3.50;2.97;;;;;;;6.53;64.70;100547.22;5022499;28;20218;-75
2022/11/28 03:22:39;;;;;;;3.47;2.80;;;;;;;6.55;64.38;100550.66;5022251;28;20217;-75
2022/11/28 03:25:14;;;;;;;3.93;2.97;;;;;;;6.56;64.86;100547.09;5030211;28;20199;-75
2022/11/28 03:27:46;;;;;;;3.23;2.90;;;;;;;6.53;64.74;100545.44;5027118;28;20204;-73
2022/11/28 03:30:18;;;;;;;3.97;3.40;;;;;;;6.50;64.62;100542.94;5026417;28;20584;-75
2022/11/28 03:32:47;;;;;;;4.20;3.20;;;;;;;6.48;64.83;100543.94;5024696;28;20229;-75
2022/11/28 03:35:18;;;;;;;5.20;3.00;;;;;;;6.51;64.80;100538.50;5025482;28;20393;-75
2022/11/28 03:37:50;;;;;;;3.93;3.23;;;;;;;6.48;64.30;100538.66;5028203;28;20209;-75
2022/11/28 03:40:22;;;;;;;3.60;3.07;;;;;;;6.47;64.52;100536.94;5027640;28;20726;-75
2022/11/28 03:42:53;;;;;;;3.40;2.37;;;;;;;6.48;64.15;100536.84;5029649;28;20581;-73
2022/11/28 03:45:24;;;;;;;3.50;3.10;;;;;;;6.48;64.55;100541.28;5026413;28;20202;-75
2022/11/28 03:47:56;;;;;;;3.90;3.03;;;;;;;6.47;64.29;100536.94;5026370;28;20217;-75
2022/11/28 03:50:29;;;;;;;3.80;3.00;;;;;;;6.44;64.57;100545.91;5029544;28;20233;-76
2022/11/28 03:53:02;;;;;;;3.13;2.80;;;;;;;6.45;64.47;100530.88;5024719;28;20226;-75
2022/11/28 03:55:35;;;;;;;4.20;2.80;;;;;;;6.44;63.98;100535.31;5023875;28;20206;-74
2022/11/28 03:58:09;;;;;;;5.67;3.67;;;;;;;6.43;64.18;100530.09;5022178;28;20214;-76
2022/11/28 04:00:45;;;;;;;4.30;3.20;;;;;;;6.42;64.56;100525.75;5020905;28;20610;-75
2022/11/28 04:03:21;;;;;;;3.67;3.03;;;;;;;6.42;64.41;100531.88;5023912;28;20198;-74
2022/11/28 04:05:54;;;;;;;3.53;3.00;;;;;;;6.42;64.79;100520.44;5022787;28;20202;-74
2022/11/28 04:08:26;;;;;;;3.83;3.17;;;;;;;6.41;64.48;100526.66;5028677;28;20297;-75
2022/11/28 04:11:00;;;;;;;3.97;2.97;;;;;;;6.39;64.57;100521.44;5022592;28;20226;-75
2022/11/28 04:13:32;;;;;;;3.93;3.00;;;;;;;6.39;64.81;100525.88;5028792;28;20206;-75
2022/11/28 04:16:04;;;;;;;3.37;2.90;;;;;;;6.38;64.99;100521.50;5024926;28;20214;-74
2022/11/28 04:18:38;;;;;;;4.67;2.93;;;;;;;6.37;65.21;100522.44;5022334;28;20687;-75
2022/11/28 04:21:13;;;;;;;4.33;2.83;;;;;;;6.37;65.12;100515.38;5023354;28;20241;-75
2022/11/28 04:23:44;;;;;;;3.70;3.17;;;;;;;6.37;64.89;100523.31;5024326;28;20207;-75
2022/11/28 04:26:16;;;;;;;3.53;2.80;;;;;;;6.37;64.83;100523.31;5026475;28;20391;-74
2022/11/28 04:28:45;;;;;;;3.40;3.00;;;;;;;6.37;64.83;100522.44;5026991;28;20977;-75
2022/11/28 04:31:13;;;;;;;5.97;3.53;;;;;;;6.36;65.32;100526.88;5023229;28;20226;-75
2022/11/28 04:33:44;;;;;;;4.63;3.43;;;;;;;6.36;65.39;100512.78;5025298;28;20248;-74
2022/11/28 04:36:12;;;;;;;4.60;3.13;;;;;;;6.36;65.20;100515.44;5026978;28;20209;-75
2022/11/28 04:38:40;;;;;;;3.10;2.80;;;;;;;6.36;65.29;100526.03;5020505;28;20210;-75
2022/11/28 04:41:12;;;;;;;3.87;3.30;;;;;;;6.40;64.65;100517.00;5026043;28;20234;-75
2022/11/28 04:43:44;;;;;;;3.30;2.60;;;;;;;6.39;64.69;100517.94;5025205;28;20209;-75
2022/11/28 04:46:14;;;;;;;3.10;2.80;;;;;;;6.39;64.13;100505.56;5025153;28;20205;-75
2022/11/28 04:48:41;;;;;;;5.70;2.90;;;;;;;6.39;64.57;100508.22;5023076;28;20206;-76
2022/11/28 04:51:19;;;;;;;3.70;2.80;;;;;;;6.36;64.64;100500.44;5019373;28;20242;-74
2022/11/28 04:53:50;;;;;;;4.33;2.90;;;;;;;6.32;64.85;100504.16;5015832;28;20205;-75
2022/11/28 04:56:21;;;;;;;4.50;3.23;;;;;;;6.28;64.71;100503.44;5014497;28;20201;-73
2022/11/28 04:58:50;;;;;;;4.67;2.93;;;;;;;6.27;65.08;100500.84;5020614;28;20210;-75
2022/11/28 05:01:22;;;;;;;3.27;2.50;;;;;;;6.24;64.89;100493.94;5016792;28;20233;-74
2022/11/28 05:03:49;;;;;;;4.73;2.80;;;;;;;6.23;65.52;100496.66;5015103;28;20206;-74
2022/11/28 05:06:24;;;;;;;4.50;3.23;;;;;;;6.19;65.40;100498.59;5017394;28;20226;-74
2022/11/28 05:08:51;;;;;;;4.50;3.13;;;;;;;6.17;65.29;100492.50;5018297;28;20692;-74
2022/11/28 05:11:18;;;;;;;5.57;3.33;;;;;;;6.16;65.54;100492.59;5018255;28;20240;-74
2022/11/28 05:13:45;;;;;;;4.60;3.13;;;;;;;6.14;65.38;100497.94;5022076;28;20229;-74
2022/11/28 05:16:12;;;;;;;3.60;3.13;;;;;;;6.13;65.55;100493.59;5017839;28;21114;-74
2022/11/28 05:18:38;;;;;;;3.87;2.90;;;;;;;6.13;65.78;100488.28;5014556;28;20794;-74
2022/11/28 05:21:07;;;;;;;4.60;3.13;;;;;;;6.13;65.67;100490.94;5023789;28;20225;-75
2022/11/28 05:23:34;;;;;;;5.43;3.70;;;;;;;6.13;65.55;100485.66;5017388;28;20250;-74
2022/11/28 05:26:05;;;;;;;3.80;3.33;;;;;;;6.11;65.52;100484.88;5012857;28;20211;-74
2022/11/28 05:28:33;;;;;;;3.43;3.13;;;;;;;6.11;65.72;100486.66;5021150;28;20206;-75
2022/11/28 05:31:01;;;;;;;3.90;3.17;;;;;;;6.12;66.10;100483.06;5024541;28;20229;-75
2022/11/28 05:33:28;;;;;;;3.70;3.17;;;;;;;6.11;66.15;100482.22;5022038;28;20482;-74
2022/11/28 05:35:55;;;;;;;3.37;2.83;;;;;;;6.11;65.60;100492.78;5022765;28;20222;-74
2022/11/28 05:38:21;;;;;;;4.10;3.37;;;;;;;6.11;65.81;100492.78;5024679;28;20225;-74
2022/11/28 05:40:48;;;;;;;4.23;3.13;;;;;;;6.09;66.11;100494.66;5019497;28;20231;-74
2022/11/28 05:43:14;;;;;;;6.13;3.83;;;;;;;6.11;65.56;100489.28;5019569;28;20206;-74
2022/11/28 05:45:43;;;;;;;5.23;3.10;;;;;;;6.11;65.46;100492.78;5017699;28;20213;-73
2022/11/28 05:48:10;;;;;;;4.50;3.53;;;;;;;6.09;65.56;100492.00;5020768;28;20606;-74
2022/11/28 05:50:38;;;;;;;5.57;3.60;;;;;;;6.10;65.44;100480.50;5022493;28;20735;-75
2022/11/28 05:53:05;;;;;;;5.50;3.60;;;;;;;6.10;65.43;100480.50;5021022;28;20211;-74
2022/11/28 05:55:31;;;;;;;5.40;3.90;;;;;;;6.10;65.71;100474.34;5020095;28;20213;-74
2022/11/28 05:57:58;;;;;;;4.93;3.43;;;;;;;6.10;65.49;100472.56;5020738;28;20210;-74
2022/11/28 06:00:24;;;;;;;6.33;3.70;;;;;;;6.10;65.41;100469.94;5020278;28;20226;-74
2022/11/28 06:02:52;;;;;;;3.77;3.03;;;;;;;6.10;65.29;100472.56;5022541;28;20218;-74
2022/11/28 06:05:19;;;;;;;5.57;3.77;;;;;;;6.09;65.29;100470.84;5018435;28;20209;-74
2022/11/28 06:07:45;;;;;;;4.43;3.40;;;;;;;6.06;65.08;100473.69;5016617;28;20209;-73
2022/11/28 06:10:11;;;;;;;5.73;3.60;;;;;;;6.06;65.55;100465.75;5018677;28;20226;-74
2022/11/28 06:12:38;;;;;;;5.33;3.67;;;;;;;6.04;65.37;100462.31;5020791;28;20218;-73
2022/11/28 06:15:06;;;;;;;5.17;3.40;;;;;;;6.05;65.45;100463.16;5023445;28;20206;-75
2022/11/28 06:17:32;;;;;;;4.47;2.97;;;;;;;6.03;65.62;100465.03;5016050;28;20676;-74
2022/11/28 06:20:00;;;;;;;5.33;3.33;;;;;;;6.04;65.01;100474.66;5020786;28;20230;-75
2022/11/28 06:22:26;;;;;;;5.87;3.70;;;;;;;6.03;65.23;100465.88;5016776;28;20237;-74
2022/11/28 06:24:53;;;;;;;5.83;3.60;;;;;;;6.02;65.33;100466.81;5017344;28;20214;-75
2022/11/28 06:27:19;;;;;;;4.93;3.60;;;;;;;6.02;65.21;100469.47;5018733;28;20198;-75
2022/11/28 06:29:46;;;;;;;5.63;4.03;;;;;;;6.01;65.20;100470.38;5021554;28;20218;-74
2022/11/28 06:32:12;;;;;;;4.43;3.50;;;;;;;6.02;65.41;100472.09;5025670;28;20233;-74
2022/11/28 06:34:38;;;;;;;4.63;3.27;;;;;;;6.00;65.26;100471.31;5022409;28;20202;-76
2022/11/28 06:37:06;;;;;;;4.97;3.30;;;;;;;6.02;65.47;100465.94;5023376;28;20214;-76
2022/11/28 06:39:33;;;;;;;5.87;3.90;;;;;;;6.02;65.08;100463.31;5026134;28;20233;-76
2022/11/28 06:41:59;;;;;;;5.40;3.60;;;;;;;6.01;65.07;100467.75;5024039;28;20194;-75
2022/11/28 06:44:26;;;;;;;6.80;3.83;;;;;;;6.01;65.15;100461.59;5021085;28;20214;-76
2022/11/28 06:46:53;;;;;;;5.30;3.67;;;;;;;6.01;65.34;100464.25;5015244;28;20218;-75
2022/11/28 06:49:19;;;;;;;5.60;3.93;;;;;;;5.99;65.04;100474.88;5022653;28;20303;-77
2022/11/28 06:51:46;;;;;;;5.70;3.23;;;;;;;5.99;65.00;100487.25;5028714;28;20238;-76
2022/11/28 06:54:14;;;;;;;4.63;3.67;;;;;;;5.99;65.48;100490.75;5018080;28;20198;-76
2022/11/28 06:56:41;;;;;;;4.53;3.93;;;;;;;5.97;65.35;100489.94;5016363;28;20207;-75
2022/11/28 06:59:07;;;;;;;5.93;3.70;;;;;;;5.97;65.26;100487.31;5022607;28;20218;-76
2022/11/28 07:01:34;;;;;;;5.30;3.63;;;;;;;5.96;65.37;100496.16;5029103;28;20210;-76
2022/11/28 07:04:01;;;;;;;4.43;3.50;;;;;;;5.97;65.48;100491.75;5026642;28;20205;-77
2022/11/28 07:06:28;;;;;;;4.80;3.60;;;;;;;5.97;65.42;100497.88;5026134;28;20207;-76
2022/11/28 07:08:56;;;;;;;5.37;3.73;;;;;;;5.98;65.87;100494.31;5025122;28;20215;-76
2022/11/28 07:11:26;;;;;;;5.63;4.10;;;;;;;5.98;65.64;100494.31;5022265;28;20308;-76
2022/11/28 07:13:54;;;;;;;7.10;4.03;;;;;;;5.98;66.19;100494.31;5024218;28;20202;-77
2022/11/28 07:16:23;;;;;;;5.33;3.77;;;;;;;5.98;65.72;100486.38;5030914;28;20202;-77
2022/11/28 07:18:49;;;;;;;4.10;3.60;;;;;;;5.99;65.76;100496.03;5028311;28;20229;-76
2022/11/28 07:21:16;;;;;;;7.00;4.23;;;;;;;6.00;66.23;100484.53;5026926;28;20218;-77
2022/11/28 07:23:44;;;;;;;6.37;4.13;;;;;;;6.01;66.38;100483.59;5025620;28;20207;-76
2022/11/28 07:26:12;;;;;;;5.23;4.30;;;;;;;6.01;65.97;100482.75;5027335;28;20202;-76
2022/11/28 07:28:41;;;;;;;7.13;4.50;;;;;;;6.01;65.81;100483.59;5025068;28;20215;-76
2022/11/28 07:31:09;;;;;;;7.53;4.20;;;;;;;6.03;65.62;100484.38;5025298;28;20226;-76
2022/11/28 07:33:37;;;;;;;6.43;3.90;;;;;;;6.04;66.27;100482.59;5023000;28;20213;-75
2022/11/28 07:36:06;;;;;;;6.13;4.20;;;;;;;6.05;66.67;100486.97;5026917;28;20199;-76
2022/11/28 07:38:33;;;;;;;5.63;4.00;;;;;;;6.05;66.39;100495.75;5020596;28;20203;-76
2022/11/28 07:41:04;;;;;;;5.57;4.40;;;;;;;6.05;66.22;100505.47;5023216;28;20238;-77
2022/11/28 07:43:30;;;;;;;5.60;4.13;;;;;;;6.04;66.72;100504.63;5020207;28;20209;-76
2022/11/28 07:45:58;;;;;;;5.77;4.80;;;;;;;6.06;66.91;100507.19;5020053;28;20206;-76
2022/11/28 07:48:25;;;;;;;4.27;3.87;;;;;;;6.04;66.76;100504.63;5017901;28;20213;-76
2022/11/28 07:50:51;;;;;;;7.03;4.50;;;;;;;6.04;67.09;100507.25;5017015;28;20617;-76
2022/11/28 07:53:18;;;;;;;6.13;4.67;;;;;;;6.06;67.37;100507.19;5025347;28;20215;-76
2022/11/28 07:55:44;;;;;;;5.67;4.60;;;;;;;6.07;67.16;100512.41;5026184;28;20205;-77
2022/11/28 07:58:11;;;;;;;6.07;4.27;;;;;;;6.08;67.66;100521.19;5027206;28;20217;-76
2022/11/28 08:00:37;;;;;;;5.47;3.97;;;;;;;6.09;68.25;100514.97;5031153;28;20230;-77
2022/11/28 08:03:05;;;;;;;9.67;5.13;;;;;;;6.09;68.71;100509.69;5028017;28;20207;-77
2022/11/28 08:05:32;;;;;;;6.23;4.73;;;;;;;6.08;69.17;100508.84;5029100;28;20213;-77
2022/11/28 08:07:59;;;;;;;7.33;4.40;;;;;;;6.06;69.37;100515.97;5031250;28;20217;-77
2022/11/28 08:10:26;;;;;;;5.30;4.30;;;;;;;6.06;69.89;100504.53;5029209;28;20260;-78
2022/11/28 08:12:52;;;;;;;5.23;4.30;;;;;;;6.03;70.56;100499.41;5030114;28;20238;-77
2022/11/28 08:15:19;;;;;;;5.73;4.20;;;;;;;5.99;70.83;100496.03;5025934;28;20202;-77
2022/11/28 08:17:45;;;;;;;5.90;4.33;;;;;;;5.98;71.19;100499.59;5030891;28;20586;-76
2022/11/28 08:20:13;;;;;;;5.83;4.60;;;;;;;5.95;71.34;100501.53;5025598;28;20588;-77
2022/11/28 08:22:40;;;;;;;7.33;4.87;;;;;;;5.92;71.78;100503.38;5032807;28;20206;-77
2022/11/28 08:25:09;;;;;;;6.43;4.57;;;;;;;5.92;71.92;100499.88;5032379;28;20672;-77
2022/11/28 08:27:36;;;;;;;6.40;4.50;;;;;;;5.90;72.16;100502.63;5031286;28;20206;-76
2022/11/28 08:30:03;;;;;;;5.73;4.47;;;;;;;5.90;72.60;100507.91;5030447;28;20227;-76
2022/11/28 08:32:30;;;;;;;6.00;4.30;;;;;;;5.89;72.95;100500.91;5029503;28;20292;-77
2022/11/28 08:34:56;;;;;;;8.23;4.70;;;;;;;5.88;72.84;100499.19;5026248;28;20206;-77
2022/11/28 08:37:25;;;;;;;5.37;4.13;;;;;;;5.89;73.19;100494.75;5027312;28;20379;-76
2022/11/28 08:39:51;;;;;;;6.67;4.47;;;;;;;5.88;73.20;100495.66;5030459;28;20252;-77
2022/11/28 08:42:18;;;;;;;9.17;4.67;;;;;;;5.88;73.25;100495.66;5021848;28;20202;-77
2022/11/28 08:44:44;;;;;;;5.50;4.37;;;;;;;5.87;73.00;100492.16;5025410;28;20213;-77
2022/11/28 08:47:11;;;;;;;8.97;4.97;;;;;;;5.88;73.30;100493.91;5026406;28;20202;-77
2022/11/28 08:49:38;;;;;;;7.10;4.47;;;;;;;5.88;73.45;100496.53;5027369;28;20237;-77
2022/11/28 08:52:05;;;;;;;6.33;4.87;;;;;;;5.89;73.02;100500.91;5026692;28;20294;-77
2022/11/28 08:54:33;;;;;;;5.80;4.40;;;;;;;5.90;72.93;100507.91;5024065;28;20220;-77
2022/11/28 08:57:00;;;;;;;7.57;4.90;;;;;;;5.91;73.23;100506.13;5026374;28;20213;-77
2022/11/28 08:59:26;;;;;;;5.87;4.47;;;;;;;5.93;72.68;100506.88;5023614;28;20223;-76
2022/11/28 09:01:53;;;;;;;6.53;4.27;;;;;;;5.94;72.58;100508.59;5019652;28;20218;-77
2022/11/28 09:04:20;;;;;;;7.30;4.50;;;;;;;5.96;72.77;100522.59;5027316;28;20203;-77
2022/11/28 09:06:47;;;;;;;6.70;3.87;;;;;;;5.97;72.23;100521.69;5023872;28;20217;-76
2022/11/28 09:09:13;;;;;;;6.20;4.60;;;;;;;5.98;72.20;100520.75;5030961;28;20692;-77
2022/11/28 09:11:41;;;;;;;5.23;4.23;;;;;;;5.99;72.15;100522.47;5029217;28;20238;-77
2022/11/28 09:14:08;;;;;;;5.93;4.80;;;;;;;5.99;72.60;100522.47;5030311;28;20214;-77
2022/11/28 09:16:34;;;;;;;8.70;5.40;;;;;;;6.01;72.19;100510.03;5033136;28;20198;-76
2022/11/28 09:19:01;;;;;;;6.83;3.93;;;;;;;6.03;72.31;100513.47;5030751;28;20210;-77
2022/11/28 09:21:27;;;;;;;6.07;4.50;;;;;;;6.05;72.05;100516.03;5023268;28;20231;-76
2022/11/28 09:23:55;;;;;;;5.23;4.13;;;;;;;6.05;72.08;100514.25;5024249;28;20207;-76
2022/11/28 09:26:24;;;;;;;4.87;4.13;;;;;;;6.07;71.34;100512.41;5025469;28;20206;-77
2022/11/28 09:28:52;;;;;;;5.80;4.33;;;;;;;6.08;71.81;100510.63;5030632;28;20221;-76
2022/11/28 09:31:20;;;;;;;6.57;4.20;;;;;;;6.08;71.31;100514.13;5031598;28;20237;-78
2022/11/28 09:33:47;;;;;;;6.37;4.50;;;;;;;6.09;71.47;100513.16;5026579;28;20207;-76
2022/11/28 09:36:17;;;;;;;5.37;4.23;;;;;;;6.11;71.26;100510.44;5028552;28;20669;-77
2022/11/28 09:38:43;;;;;;;6.33;4.47;;;;;;;6.10;71.09;100509.59;5026551;28;20214;-76
2022/11/28 09:41:32;;;;;;;5.97;4.07;;;;;;;6.12;71.22;100512.16;5030790;28;20719;-77
2022/11/28 09:44:06;;;;;;;7.47;4.80;;;;;;;6.13;71.21;100516.53;5025076;28;20202;-76
2022/11/28 09:46:35;;;;;;;7.20;4.37;;;;;;;6.13;70.65;100509.44;5030014;28;20202;-77
2022/11/28 09:49:04;;;;;;;5.63;4.40;;;;;;;6.15;70.75;100512.03;5029951;28;20214;-76
2022/11/28 09:51:36;;;;;;;5.97;4.80;;;;;;;6.14;70.94;100519.09;5029696;28;20241;-76
2022/11/28 09:54:11;;;;;;;6.73;4.70;;;;;;;6.15;70.90;100515.53;5030031;28;20206;-76
2022/11/28 09:56:37;;;;;;;6.10;4.20;;;;;;;6.18;70.82;100510.09;5026358;28;20201;-76
2022/11/28 09:59:12;;;;;;;4.90;4.23;;;;;;;6.19;70.52;100500.38;5031659;28;20573;-76
2022/11/28 10:01:45;;;;;;;5.17;4.23;;;;;;;6.20;70.23;100504.75;5029870;28;20198;-76
2022/11/28 10:04:20;;;;;;;5.67;4.40;;;;;;;6.20;70.32;100508.25;5031280;28;20217;-77
2022/11/28 10:06:55;;;;;;;5.57;4.27;;;;;;;6.24;70.27;100507.16;5024287;28;20199;-77
2022/11/28 10:09:35;;;;;;;4.93;3.80;;;;;;;6.23;70.22;100505.47;5026441;28;20226;-76
2022/11/28 10:12:16;;;;;;;6.40;4.57;;;;;;;6.25;70.26;100500.97;5029738;28;20670;-77
2022/11/28 10:15:14;;;;;;;6.20;3.73;;;;;;;6.27;70.06;100504.34;5031101;28;20217;-77
2022/11/28 10:17:49;;;;;;;5.00;4.20;;;;;;;6.25;69.61;100498.31;5026400;28;20237;-76
2022/11/28 10:20:20;;;;;;;5.70;4.60;;;;;;;6.26;70.18;100505.31;5022619;28;20280;-77
2022/11/28 10:22:51;;;;;;;5.60;4.50;;;;;;;6.28;69.86;100502.56;5025743;28;20542;-76
2022/11/28 10:25:24;;;;;;;5.07;4.33;;;;;;;6.28;69.86;100503.44;5023777;28;20210;-76
2022/11/28 10:27:51;;;;;;;6.40;4.60;;;;;;;6.28;69.53;100503.44;5018579;28;20215;-76
2022/11/28 10:30:23;;;;;;;6.53;4.60;;;;;;;6.30;69.83;100500.72;5024454;28;20297;-77
2022/11/28 10:33:02;;;;;;;5.90;4.47;;;;;;;6.31;70.25;100496.28;5017969;28;20229;-76
2022/11/28 10:35:38;;;;;;;7.07;4.90;;;;;;;6.32;70.26;100503.28;5020729;28;20221;-76
2022/11/28 10:38:11;;;;;;;6.83;4.60;;;;;;;6.32;70.05;100501.50;5024748;28;20466;-76
2022/11/28 10:40:46;;;;;;;8.70;4.47;;;;;;;6.33;70.06;100497.91;5021872;28;20865;-78
2022/11/28 10:43:25;;;;;;;6.33;4.60;;;;;;;6.35;70.08;100498.72;5024784;28;20205;-76
2022/11/28 10:46:02;;;;;;;6.03;4.77;;;;;;;6.37;70.42;100483.63;5025529;28;20210;-77
2022/11/28 10:48:40;;;;;;;5.20;4.53;;;;;;;6.38;70.56;100482.69;5024481;28;20194;-76
2022/11/28 10:51:25;;;;;;;7.57;5.20;;;;;;;6.39;70.21;100486.19;5024738;28;20230;-76
2022/11/28 10:54:06;;;;;;;5.63;4.73;;;;;;;6.40;70.07;100475.53;5025002;28;20676;-77
2022/11/28 10:56:42;;;;;;;6.40;5.47;;;;;;;6.42;70.26;100478.97;5023153;28;20206;-77
2022/11/28 10:59:17;;;;;;;6.10;4.40;;;;;;;6.44;70.23;100474.47;5027163;28;20216;-76
2022/11/28 11:01:46;;;;;;;6.47;4.80;;;;;;;6.44;70.27;100474.47;5022253;28;20225;-76
2022/11/28 11:04:18;;;;;;;6.53;4.67;;;;;;;6.47;70.13;100478.72;5026273;28;20218;-76
2022/11/28 11:06:53;;;;;;;6.60;4.80;;;;;;;6.49;69.43;100475.09;5026927;28;20198;-77
2022/11/28 11:09:20;;;;;;;6.57;4.73;;;;;;;6.50;69.62;100473.28;5022207;28;20226;-77
2022/11/28 11:11:59;;;;;;;6.27;4.83;;;;;;;6.50;69.76;100473.28;5023228;28;20214;-76
2022/11/28 11:14:34;;;;;;;7.90;4.33;;;;;;;6.54;69.28;100474.84;5022995;28;20748;-77
2022/11/28 11:17:02;;;;;;;7.87;5.13;;;;;;;6.56;69.41;100473.84;5018011;28;20292;-77
2022/11/28 11:19:35;;;;;;;6.70;3.97;;;;;;;6.58;69.26;100472.00;5020542;28;20226;-76
2022/11/28 11:22:06;;;;;;;8.33;4.50;;;;;;;6.59;69.08;100462.28;5015219;28;20210;-76
2022/11/28 11:24:33;;;;;;;6.27;4.87;;;;;;;6.58;69.09;100469.34;5017100;28;20265;-77
2022/11/28 11:27:05;;;;;;;7.60;4.67;;;;;;;6.60;69.28;100474.56;5014572;28;20210;-76
2022/11/28 11:29:35;;;;;;;6.07;4.70;;;;;;;6.64;69.19;100478.75;5018986;28;20800;-76
2022/11/28 11:32:05;;;;;;;6.53;4.57;;;;;;;6.65;68.69;100476.97;5021074;28;20254;-77
2022/11/28 11:34:37;;;;;;;5.97;4.50;;;;;;;6.67;69.34;100477.75;5019877;28;20676;-79
2022/11/28 11:37:19;;;;;;;6.63;4.63;;;;;;;6.70;69.03;100474.94;5021185;28;20227;-76
2022/11/28 11:39:48;;;;;;;6.87;4.17;;;;;;;6.72;69.27;100476.59;5020944;28;20277;-76
2022/11/28 11:42:20;;;;;;;8.47;5.00;;;;;;;6.75;68.56;100475.59;5020706;28;20202;-77
2022/11/28 11:44:47;;;;;;;6.87;4.63;;;;;;;6.77;68.60;100477.22;5023975;28;20195;-77
2022/11/28 11:47:15;;;;;;;6.70;4.77;;;;;;;6.82;68.82;100474.31;5016871;28;20215;-77
2022/11/28 11:49:43;;;;;;;6.77;4.43;;;;;;;6.83;68.10;100474.25;5020407;28;20681;-76